createdAt,value
2023-02-22T00:01:50.857Z,95177.80
2023-02-22T00:04:21.270Z,95175.80
2023-02-22T00:06:49.824Z,95174.60
2023-02-22T00:09:20.644Z,95173.40
2023-02-22T00:11:48.949Z,95169.60
2023-02-22T00:14:20.281Z,95165.60
2023-02-22T00:16:47.491Z,95172.40
2023-02-22T00:19:14.085Z,95167.60
2023-02-22T00:21:40.686Z,95166.40
2023-02-22T00:24:23.157Z,95165.00
2023-02-22T00:26:52.813Z,95164.60
2023-02-22T00:29:19.399Z,95169.20
2023-02-22T00:31:46.027Z,95164.00
2023-02-22T00:34:14.474Z,95170.00
2023-02-22T00:36:50.434Z,95173.60
2023-02-22T00:39:18.005Z,95176.40
2023-02-22T00:41:45.196Z,95172.20
2023-02-22T00:44:12.226Z,95172.00
2023-02-22T00:46:39.481Z,95164.60
2023-02-22T00:49:06.296Z,95168.80
2023-02-22T00:51:33.928Z,95164.40
2023-02-22T00:54:01.064Z,95160.40
2023-02-22T00:56:27.918Z,95164.00
2023-02-22T00:58:54.834Z,95159.40
2023-02-22T01:01:21.512Z,95157.00
2023-02-22T01:03:48.578Z,95156.60
2023-02-22T01:06:16.460Z,95152.60
2023-02-22T01:08:48.137Z,95150.00
2023-02-22T01:11:17.231Z,95145.00
2023-02-22T01:13:47.319Z,95147.60
2023-02-22T01:16:14.322Z,95142.20
2023-02-22T01:18:41.878Z,95140.20
2023-02-22T01:21:08.599Z,95134.60
2023-02-22T01:23:35.290Z,95137.80
2023-02-22T01:26:04.325Z,95133.40
2023-02-22T01:28:31.762Z,95131.80
2023-02-22T01:30:58.469Z,95127.40
2023-02-22T01:33:25.590Z,95126.60
2023-02-22T01:35:52.660Z,95128.00
2023-02-22T01:38:19.267Z,95131.80
2023-02-22T01:40:51.707Z,95135.00
2023-02-22T01:43:29.583Z,95133.20
2023-02-22T01:46:03.678Z,95131.60
2023-02-22T01:48:42.259Z,95131.60
2023-02-22T01:51:18.863Z,95132.20
2023-02-22T01:54:06.466Z,95132.40
2023-02-22T01:56:37.251Z,95128.00
2023-02-22T01:59:09.390Z,95127.20
2023-02-22T02:01:39.305Z,95128.60
2023-02-22T02:04:11.212Z,95123.00
2023-02-22T02:06:38.978Z,95126.60
2023-02-22T02:09:34.807Z,95120.60
2023-02-22T02:12:02.870Z,95117.60
2023-02-22T02:14:32.052Z,95119.80
2023-02-22T02:17:01.569Z,95114.60
2023-02-22T02:19:51.418Z,95115.00
2023-02-22T02:22:50.113Z,95113.60
2023-02-22T02:26:04.027Z,95109.60
2023-02-22T02:29:14.704Z,95098.60
2023-02-22T02:32:29.914Z,95094.60
2023-02-22T02:35:21.703Z,95089.60
2023-02-22T02:38:19.445Z,95081.60
2023-02-22T02:41:10.946Z,95081.20
2023-02-22T02:43:49.607Z,95083.80
2023-02-22T02:46:32.271Z,95077.20
2023-02-22T02:49:04.141Z,95072.60
2023-02-22T02:51:37.673Z,95076.00
2023-02-22T02:54:07.472Z,95072.60
2023-02-22T02:56:34.807Z,95071.20
2023-02-22T02:59:01.479Z,95067.00
2023-02-22T03:01:48.561Z,95064.80
2023-02-22T03:04:54.185Z,95060.80
2023-02-22T03:07:31.482Z,95064.80
2023-02-22T03:10:27.192Z,95058.80
2023-02-22T03:13:17.826Z,95064.80
2023-02-22T03:16:14.559Z,95058.20
2023-02-22T03:18:56.762Z,95058.00
2023-02-22T03:21:33.703Z,95054.40
2023-02-22T03:24:14.479Z,95052.20
2023-02-22T03:26:47.698Z,95052.80
2023-02-22T03:29:19.441Z,95051.40
2023-02-22T03:32:14.925Z,95049.40
2023-02-22T03:34:53.061Z,95054.40
2023-02-22T03:37:28.886Z,95057.20
2023-02-22T03:39:58.107Z,95061.00
2023-02-22T03:42:32.201Z,95062.20
2023-02-22T03:45:01.467Z,95070.80
2023-02-22T03:47:42.553Z,95075.00
2023-02-22T03:50:17.122Z,95079.20
2023-02-22T03:52:44.827Z,95079.00
2023-02-22T03:55:17.768Z,95073.60
2023-02-22T03:57:52.942Z,95074.60
2023-02-22T04:00:26.962Z,95074.00
2023-02-22T04:02:54.732Z,95074.80
2023-02-22T04:05:22.000Z,95072.00
2023-02-22T04:07:49.416Z,95072.40
2023-02-22T04:10:16.947Z,95071.60
2023-02-22T04:12:43.895Z,95068.60
2023-02-22T04:15:16.758Z,95066.40
2023-02-22T04:17:44.061Z,95067.20
2023-02-22T04:20:14.652Z,95065.80
2023-02-22T04:22:48.662Z,95065.40
2023-02-22T04:25:16.197Z,95061.40
2023-02-22T04:27:43.472Z,95057.40
2023-02-22T04:30:12.244Z,95054.80
2023-02-22T04:32:39.579Z,95053.80
2023-02-22T04:35:07.492Z,95057.00
2023-02-22T04:37:34.763Z,95056.80
2023-02-22T04:40:08.604Z,95056.60
2023-02-22T04:42:37.525Z,95054.80
2023-02-22T04:45:08.004Z,95050.40
2023-02-22T04:47:36.787Z,95046.80
2023-02-22T04:50:09.438Z,95044.60
2023-02-22T04:52:36.186Z,95042.20
2023-02-22T04:55:04.888Z,95040.60
2023-02-22T04:57:32.857Z,95041.60
2023-02-22T04:59:59.657Z,95041.60
2023-02-22T05:02:26.641Z,95039.20
2023-02-22T05:04:53.561Z,95044.60
2023-02-22T05:07:20.245Z,95044.00
2023-02-22T05:09:46.842Z,95042.20
2023-02-22T05:12:13.460Z,95045.60
2023-02-22T05:14:40.119Z,95043.40
2023-02-22T05:17:06.716Z,95043.40
2023-02-22T05:19:33.397Z,95041.40
2023-02-22T05:22:00.273Z,95039.80
2023-02-22T05:24:26.900Z,95038.60
2023-02-22T05:26:53.557Z,95030.20
2023-02-22T05:29:21.183Z,95024.20
2023-02-22T05:31:48.023Z,95029.40
2023-02-22T05:34:15.983Z,95027.40
2023-02-22T05:36:42.856Z,95023.40
2023-02-22T05:39:09.519Z,95025.40
2023-02-22T05:41:36.100Z,95021.80
2023-02-22T05:44:03.173Z,95020.60
2023-02-22T05:46:30.021Z,95022.20
2023-02-22T05:48:56.640Z,95022.20
2023-02-22T05:51:23.439Z,95020.20
2023-02-22T05:53:52.272Z,95014.80
2023-02-22T05:56:27.054Z,95017.60
2023-02-22T05:58:54.671Z,95017.00
2023-02-22T06:01:22.023Z,95012.60
2023-02-22T06:03:52.717Z,95010.40
2023-02-22T06:06:22.246Z,95012.60
2023-02-22T06:08:49.594Z,95012.60
2023-02-22T06:11:16.848Z,95010.60
2023-02-22T06:13:51.610Z,95010.20
2023-02-22T06:16:21.178Z,95016.60
2023-02-22T06:18:48.707Z,95014.20
2023-02-22T06:21:15.899Z,95017.20
2023-02-22T06:23:42.886Z,95018.60
2023-02-22T06:26:09.436Z,95020.00
2023-02-22T06:28:36.186Z,95020.80
2023-02-22T06:31:02.966Z,95017.80
2023-02-22T06:33:29.605Z,95021.80
2023-02-22T06:35:56.158Z,95020.40
2023-02-22T06:38:25.587Z,95021.60
2023-02-22T06:40:52.207Z,95024.60
2023-02-22T06:43:18.938Z,95028.40
2023-02-22T06:45:45.731Z,95031.60
2023-02-22T06:48:13.123Z,95038.20
2023-02-22T06:50:39.801Z,95041.20
2023-02-22T06:53:06.923Z,95044.40
2023-02-22T06:55:34.815Z,95045.60
2023-02-22T06:58:04.773Z,95044.00
2023-02-22T07:00:32.997Z,95046.60
2023-02-22T07:03:00.479Z,95048.20
2023-02-22T07:05:28.751Z,95049.80
2023-02-22T07:08:04.872Z,95047.60
2023-02-22T07:10:33.390Z,95046.60
2023-02-22T07:13:01.447Z,95048.20
2023-02-22T07:15:30.238Z,95051.60
2023-02-22T07:17:57.308Z,95047.20
2023-02-22T07:20:25.688Z,95043.80
2023-02-22T07:22:53.228Z,95043.20
2023-02-22T07:25:21.580Z,95044.20
2023-02-22T07:27:48.808Z,95039.80
2023-02-22T07:30:32.322Z,95043.40
2023-02-22T07:33:02.429Z,95039.80
2023-02-22T07:35:54.413Z,95044.00
2023-02-22T07:38:21.362Z,95041.20
2023-02-22T07:40:48.419Z,95044.00
2023-02-22T07:43:23.616Z,95041.60
2023-02-22T07:45:55.706Z,95038.80
2023-02-22T07:48:28.258Z,95032.60
2023-02-22T07:50:54.914Z,95025.40
2023-02-22T07:53:30.255Z,95027.60
2023-02-22T07:56:05.782Z,95030.60
2023-02-22T07:58:33.104Z,95030.40
2023-02-22T08:01:03.812Z,95026.60
2023-02-22T08:03:36.855Z,95023.80
2023-02-22T08:06:06.512Z,95022.60
2023-02-22T08:08:34.412Z,95019.40
2023-02-22T08:11:01.121Z,95021.20
2023-02-22T08:13:28.274Z,95024.20
2023-02-22T08:15:55.268Z,95016.80
2023-02-22T08:18:24.031Z,95011.00
2023-02-22T08:20:52.732Z,95008.20
2023-02-22T08:23:22.705Z,95007.00
2023-02-22T08:25:49.497Z,95003.60
2023-02-22T08:28:23.512Z,95003.20
2023-02-22T08:30:51.383Z,95000.80
2023-02-22T08:33:19.808Z,95005.20
2023-02-22T08:35:50.287Z,95001.80
2023-02-22T08:38:25.547Z,94999.20
2023-02-22T08:40:52.281Z,94997.20
2023-02-22T08:43:20.986Z,95000.00
2023-02-22T08:45:48.621Z,94989.00
2023-02-22T08:48:16.668Z,94988.20
2023-02-22T08:50:44.310Z,94981.40
2023-02-22T08:53:14.401Z,94986.40
2023-02-22T08:55:42.301Z,94985.20
2023-02-22T08:58:09.870Z,94979.20
2023-02-22T09:00:39.150Z,94978.40
2023-02-22T09:03:10.669Z,94977.80
2023-02-22T09:05:37.628Z,94976.80
2023-02-22T09:08:04.678Z,94974.20
2023-02-22T09:10:34.128Z,94970.60
2023-02-22T09:13:01.575Z,94974.00
2023-02-22T09:15:28.926Z,94973.60
2023-02-22T09:17:56.055Z,94966.60
2023-02-22T09:20:25.104Z,94969.60
2023-02-22T09:22:52.469Z,94964.60
2023-02-22T09:25:20.777Z,94958.00
2023-02-22T09:27:55.406Z,94952.80
2023-02-22T09:30:33.977Z,94951.00
2023-02-22T09:33:10.112Z,94949.00
2023-02-22T09:35:42.392Z,94942.60
2023-02-22T09:38:10.513Z,94940.40
2023-02-22T09:40:46.151Z,94931.60
2023-02-22T09:43:33.209Z,94930.20
2023-02-22T09:46:19.318Z,94925.80
2023-02-22T09:49:05.126Z,94923.00
2023-02-22T09:51:49.292Z,94922.40
2023-02-22T09:54:36.078Z,94922.80
2023-02-22T09:57:08.788Z,94911.20
2023-02-22T09:59:50.614Z,94915.80
2023-02-22T10:02:37.182Z,94906.40
2023-02-22T10:05:20.152Z,94907.20
2023-02-22T10:08:01.265Z,94902.20
2023-02-22T10:10:35.214Z,94896.00
2023-02-22T10:13:32.350Z,94895.60
2023-02-22T10:16:40.733Z,94896.40
2023-02-22T10:19:19.214Z,94893.60
2023-02-22T10:22:00.834Z,94892.00
2023-02-22T10:24:56.148Z,94888.60
2023-02-22T10:27:34.180Z,94890.60
2023-02-22T10:30:23.552Z,94893.00
2023-02-22T10:33:06.592Z,94894.80
2023-02-22T10:35:36.722Z,94894.20
2023-02-22T10:38:20.974Z,94891.60
2023-02-22T10:41:10.848Z,94893.20
2023-02-22T10:43:39.444Z,94888.00
2023-02-22T10:46:09.608Z,94887.80
2023-02-22T10:48:40.786Z,94888.40
2023-02-22T10:51:09.965Z,94890.20
2023-02-22T10:53:41.593Z,94889.00
2023-02-22T10:56:21.447Z,94886.60
2023-02-22T10:59:02.541Z,94888.40
2023-02-22T11:01:32.328Z,94895.60
2023-02-22T11:04:22.701Z,94887.80
2023-02-22T11:07:10.597Z,94886.00
2023-02-22T11:09:51.500Z,94885.00
2023-02-22T11:12:27.393Z,94881.60
2023-02-22T11:14:54.986Z,94882.20
2023-02-22T11:17:31.702Z,94874.20
2023-02-22T11:20:00.160Z,94872.00
2023-02-22T11:22:35.573Z,94868.60
2023-02-22T11:25:07.411Z,94865.60
2023-02-22T11:27:46.905Z,94858.20
2023-02-22T11:30:29.322Z,94857.20
2023-02-22T11:33:23.627Z,94853.80
2023-02-22T11:35:57.270Z,94854.40
2023-02-22T11:38:32.619Z,94848.80
2023-02-22T11:41:22.900Z,94845.00
2023-02-22T11:43:51.892Z,94842.00
2023-02-22T11:46:32.491Z,94839.00
2023-02-22T11:49:04.681Z,94841.80
2023-02-22T11:51:49.410Z,94837.00
2023-02-22T11:54:38.218Z,94833.60
2023-02-22T11:57:07.930Z,94829.40
2023-02-22T11:59:55.685Z,94828.80
2023-02-22T12:02:37.457Z,94832.20
2023-02-22T12:05:59.444Z,94824.80
2023-02-22T12:08:44.907Z,94824.40
2023-02-22T12:11:29.098Z,94822.20
2023-02-22T12:14:11.817Z,94820.80
2023-02-22T12:17:03.227Z,94814.80
2023-02-22T12:19:48.740Z,94815.20
2023-02-22T12:22:29.097Z,94808.60
2023-02-22T12:25:10.330Z,94808.20
2023-02-22T12:27:46.394Z,94802.40
2023-02-22T12:30:20.471Z,94801.80
2023-02-22T12:32:52.677Z,94800.20
2023-02-22T12:35:34.965Z,94803.60
2023-02-22T12:38:06.743Z,94797.80
2023-02-22T12:41:18.686Z,94794.60
2023-02-22T12:43:52.764Z,94788.60
2023-02-22T12:46:44.559Z,94791.60
2023-02-22T12:49:34.714Z,94797.20
2023-02-22T12:52:21.943Z,94793.20
2023-02-22T12:54:59.755Z,94794.40
2023-02-22T12:57:42.583Z,94791.60
2023-02-22T13:00:38.223Z,94791.00
2023-02-22T13:03:38.754Z,94782.20
2023-02-22T13:06:19.781Z,94778.00
2023-02-22T13:09:18.767Z,94777.60
2023-02-22T13:12:12.989Z,94775.60
2023-02-22T13:15:03.091Z,94776.80
2023-02-22T13:18:07.820Z,94772.60
2023-02-22T13:20:45.180Z,94770.80
2023-02-22T13:23:40.112Z,94768.00
2023-02-22T13:26:31.193Z,94769.60
2023-02-22T13:29:23.197Z,94765.60
2023-02-22T13:32:45.506Z,94755.80
2023-02-22T13:35:15.185Z,94755.40
2023-02-22T13:37:59.664Z,94758.60
2023-02-22T13:40:49.186Z,94754.20
2023-02-22T13:43:56.334Z,94747.60
2023-02-22T13:46:33.877Z,94752.00
2023-02-22T13:49:09.459Z,94746.40
2023-02-22T13:51:59.144Z,94746.20
2023-02-22T13:54:41.962Z,94746.00
2023-02-22T13:57:22.310Z,94742.40
2023-02-22T13:59:49.180Z,94745.20
2023-02-22T14:03:03.599Z,94746.20
2023-02-22T14:05:39.641Z,94743.40
2023-02-22T14:08:28.904Z,94739.80
2023-02-22T14:10:57.609Z,94737.40
2023-02-22T14:13:26.911Z,94741.60
2023-02-22T14:16:02.524Z,94739.40
2023-02-22T14:18:36.462Z,94741.40
2023-02-22T14:21:10.274Z,94745.00
2023-02-22T14:23:42.396Z,94739.80
2023-02-22T14:26:14.841Z,94740.40
2023-02-22T14:28:52.214Z,94734.60
2023-02-22T14:31:35.911Z,94741.80
2023-02-22T14:34:14.239Z,94741.20
2023-02-22T14:37:05.425Z,94745.60
2023-02-22T14:39:43.453Z,94744.60
2023-02-22T14:42:30.135Z,94745.60
2023-02-22T14:45:17.127Z,94746.20
2023-02-22T14:48:20.411Z,94749.40
2023-02-22T14:50:56.127Z,94751.20
2023-02-22T14:53:38.446Z,94751.40
2023-02-22T14:56:25.610Z,94748.80
2023-02-22T14:59:07.996Z,94747.80
2023-02-22T15:01:49.053Z,94751.00
2023-02-22T15:04:27.088Z,94752.40
2023-02-22T15:06:58.158Z,94752.80
2023-02-22T15:09:34.676Z,94753.20
2023-02-22T15:12:04.797Z,94756.40
2023-02-22T15:14:38.991Z,94756.00
2023-02-22T15:17:24.921Z,94758.20
2023-02-22T15:19:52.811Z,94758.00
2023-02-22T15:22:28.763Z,94751.80
2023-02-22T15:25:08.721Z,94750.80
2023-02-22T15:27:37.430Z,94754.00
2023-02-22T15:30:18.819Z,94749.20
2023-02-22T15:33:02.654Z,94754.60
2023-02-22T15:35:33.862Z,94756.80
2023-02-22T15:38:12.305Z,94752.00
2023-02-22T15:40:43.436Z,94754.20
2023-02-22T15:43:24.539Z,94754.60
2023-02-22T15:45:52.148Z,94754.80
2023-02-22T15:48:19.383Z,94756.60
2023-02-22T15:51:04.080Z,94758.60
2023-02-22T15:53:41.828Z,94759.80
2023-02-22T15:56:30.097Z,94756.20
2023-02-22T15:59:14.040Z,94756.60
2023-02-22T16:01:48.204Z,94758.40
2023-02-22T16:04:26.481Z,94759.20
2023-02-22T16:07:16.926Z,94760.60
2023-02-22T16:09:52.236Z,94761.20
2023-02-22T16:12:21.904Z,94762.20
2023-02-22T16:14:50.060Z,94759.60
2023-02-22T16:17:30.640Z,94767.60
2023-02-22T16:20:00.282Z,94770.60
2023-02-22T16:22:34.756Z,94773.00
2023-02-22T16:25:16.715Z,94771.80
2023-02-22T16:27:52.769Z,94771.40
2023-02-22T16:30:39.542Z,94770.40
2023-02-22T16:33:13.512Z,94770.20
2023-02-22T16:35:43.389Z,94773.80
2023-02-22T16:38:16.881Z,94772.40
2023-02-22T16:40:58.345Z,94780.20
2023-02-22T16:43:29.837Z,94785.80
2023-02-22T16:45:56.614Z,94788.00
2023-02-22T16:48:38.985Z,94788.20
2023-02-22T16:51:18.761Z,94790.20
2023-02-22T16:53:46.967Z,94791.20
2023-02-22T16:56:17.869Z,94793.00
2023-02-22T16:58:47.273Z,94790.80
2023-02-22T17:01:13.989Z,94792.00
2023-02-22T17:03:40.725Z,94793.40
2023-02-22T17:06:10.739Z,94796.40
2023-02-22T17:08:42.009Z,94796.80
2023-02-22T17:11:12.491Z,94803.20
2023-02-22T17:13:40.612Z,94799.00
2023-02-22T17:16:09.160Z,94804.40
2023-02-22T17:18:35.879Z,94801.80
2023-02-22T17:21:03.463Z,94800.60
2023-02-22T17:23:30.076Z,94808.20
2023-02-22T17:26:00.523Z,94813.20
2023-02-22T17:28:27.328Z,94813.80
2023-02-22T17:31:01.271Z,94811.80
2023-02-22T17:33:33.251Z,94815.40
2023-02-22T17:36:02.206Z,94814.20
2023-02-22T17:38:30.299Z,94813.40
2023-02-22T17:41:01.216Z,94823.20
2023-02-22T17:43:29.213Z,94817.40
2023-02-22T17:45:57.196Z,94822.20
2023-02-22T17:48:24.683Z,94822.80
2023-02-22T17:50:52.867Z,94827.00
2023-02-22T17:53:24.879Z,94824.40
2023-02-22T17:55:52.782Z,94821.80
2023-02-22T17:58:19.679Z,94822.40
2023-02-22T18:00:50.069Z,94823.40
2023-02-22T18:03:25.853Z,94822.40
2023-02-22T18:05:59.137Z,94825.00
2023-02-22T18:08:29.489Z,94823.60
2023-02-22T18:11:02.078Z,94823.20
2023-02-22T18:13:30.330Z,94827.00
2023-02-22T18:16:01.079Z,94824.20
2023-02-22T18:18:28.321Z,94823.80
2023-02-22T18:20:59.958Z,94820.00
2023-02-22T18:23:30.718Z,94819.20
2023-02-22T18:26:10.582Z,94819.20
2023-02-22T18:28:38.281Z,94818.20
2023-02-22T18:31:13.415Z,94822.40
2023-02-22T18:33:43.318Z,94817.00
2023-02-22T18:36:11.725Z,94817.60
2023-02-22T18:38:42.910Z,94820.80
2023-02-22T18:41:13.548Z,94819.20
2023-02-22T18:43:41.134Z,94823.00
2023-02-22T18:46:22.741Z,94818.40
2023-02-22T18:48:53.977Z,94822.00
2023-02-22T18:51:20.603Z,94824.80
2023-02-22T18:53:48.003Z,94822.40
2023-02-22T18:56:22.592Z,94816.80
2023-02-22T18:58:54.265Z,94822.60
2023-02-22T19:01:22.146Z,94820.40
2023-02-22T19:03:49.019Z,94819.00
2023-02-22T19:06:18.242Z,94822.60
2023-02-22T19:08:46.249Z,94825.80
2023-02-22T19:11:21.838Z,94824.00
2023-02-22T19:13:53.864Z,94827.40
2023-02-22T19:16:23.589Z,94827.40
2023-02-22T19:18:52.674Z,94831.80
2023-02-22T19:21:20.952Z,94829.80
2023-02-22T19:23:49.181Z,94828.40
2023-02-22T19:26:26.523Z,94826.00
2023-02-22T19:28:56.245Z,94830.60
2023-02-22T19:31:30.610Z,94833.20
2023-02-22T19:34:08.634Z,94833.20
2023-02-22T19:36:46.482Z,94839.40
2023-02-22T19:39:15.493Z,94837.80
2023-02-22T19:41:42.485Z,94845.80
2023-02-22T19:44:09.289Z,94846.20
2023-02-22T19:46:37.864Z,94851.20
2023-02-22T19:49:06.033Z,94850.00
2023-02-22T19:51:33.694Z,94850.60
2023-02-22T19:54:04.412Z,94851.00
2023-02-22T19:56:32.603Z,94854.00
2023-02-22T19:59:09.208Z,94851.40
2023-02-22T20:01:37.450Z,94856.60
2023-02-22T20:04:08.960Z,94852.00
2023-02-22T20:06:42.024Z,94856.40
2023-02-22T20:09:14.147Z,94859.60
2023-02-22T20:11:40.779Z,94859.80
2023-02-22T20:14:07.521Z,94864.00
2023-02-22T20:16:35.821Z,94867.00
2023-02-22T20:19:02.508Z,94867.60
2023-02-22T20:21:32.546Z,94863.60
2023-02-22T20:24:01.103Z,94870.80
2023-02-22T20:26:31.345Z,94866.20
2023-02-22T20:28:58.787Z,94868.80
2023-02-22T20:31:25.503Z,94867.00
2023-02-22T20:33:57.677Z,94870.00
2023-02-22T20:36:25.821Z,94870.00
2023-02-22T20:38:55.314Z,94866.80
2023-02-22T20:41:29.272Z,94865.40
2023-02-22T20:43:57.469Z,94864.80
2023-02-22T20:46:26.947Z,94867.00
2023-02-22T20:48:55.939Z,94870.80
2023-02-22T20:51:23.090Z,94867.20
2023-02-22T20:53:50.273Z,94872.40
2023-02-22T20:56:23.172Z,94876.60
2023-02-22T20:58:50.657Z,94873.60
2023-02-22T21:01:20.714Z,94875.40
2023-02-22T21:03:48.049Z,94873.00
2023-02-22T21:06:16.988Z,94878.00
2023-02-22T21:08:46.190Z,94873.20
2023-02-22T21:11:15.778Z,94869.60
2023-02-22T21:13:42.449Z,94868.00
2023-02-22T21:16:17.679Z,94865.60
2023-02-22T21:18:44.376Z,94866.60
2023-02-22T21:21:12.464Z,94871.60
2023-02-22T21:23:41.259Z,94866.40
2023-02-22T21:26:15.604Z,94864.80
2023-02-22T21:28:51.226Z,94866.00
2023-02-22T21:31:22.670Z,94864.80
2023-02-22T21:33:53.017Z,94867.60
2023-02-22T21:36:25.167Z,94868.00
2023-02-22T21:38:56.344Z,94871.80
2023-02-22T21:41:27.773Z,94872.80
2023-02-22T21:43:57.204Z,94870.20
2023-02-22T21:46:26.652Z,94872.20
2023-02-22T21:48:53.427Z,94867.40
2023-02-22T21:51:26.871Z,94868.80
2023-02-22T21:53:55.052Z,94870.00
2023-02-22T21:56:27.614Z,94870.00
2023-02-22T21:59:07.560Z,94870.20
2023-02-22T22:01:38.740Z,94872.80
2023-02-22T22:04:05.500Z,94875.80
2023-02-22T22:06:34.433Z,94869.60
2023-02-22T22:09:05.058Z,94867.60
2023-02-22T22:11:31.714Z,94867.40
2023-02-22T22:13:59.687Z,94871.40
2023-02-22T22:16:29.911Z,94868.40
2023-02-22T22:18:56.982Z,94866.40
2023-02-22T22:21:24.634Z,94867.20
2023-02-22T22:23:56.096Z,94867.00
2023-02-22T22:26:25.319Z,94865.80
2023-02-22T22:28:57.535Z,94863.40
2023-02-22T22:31:26.312Z,94864.20
2023-02-22T22:33:56.272Z,94863.20
2023-02-22T22:36:27.331Z,94867.40
2023-02-22T22:38:57.747Z,94864.40
2023-02-22T22:41:28.136Z,94861.40
2023-02-22T22:43:55.658Z,94861.80
2023-02-22T22:46:22.558Z,94856.80
2023-02-22T22:48:49.412Z,94856.20
2023-02-22T22:51:20.320Z,94853.60
2023-02-22T22:53:49.448Z,94850.80
2023-02-22T22:56:19.135Z,94855.40
2023-02-22T22:58:58.213Z,94859.60
2023-02-22T23:01:33.123Z,94860.60
2023-02-22T23:04:02.978Z,94860.40
2023-02-22T23:06:40.052Z,94862.40
2023-02-22T23:09:26.318Z,94862.80
2023-02-22T23:12:08.936Z,94861.40
2023-02-22T23:14:43.865Z,94868.40
2023-02-22T23:17:15.388Z,94870.00
2023-02-22T23:19:47.291Z,94870.00
2023-02-22T23:22:14.611Z,94871.40
2023-02-22T23:24:42.883Z,94876.20
2023-02-22T23:27:10.903Z,94880.20
2023-02-22T23:29:41.588Z,94884.60
2023-02-22T23:32:08.993Z,94888.60
2023-02-22T23:34:36.983Z,94886.80
2023-02-22T23:37:03.772Z,94887.80
2023-02-22T23:39:30.396Z,94884.00
2023-02-22T23:42:02.993Z,94883.80
2023-02-22T23:44:30.088Z,94888.00
2023-02-22T23:46:56.899Z,94889.80
2023-02-22T23:49:36.036Z,94888.20
2023-02-22T23:52:05.292Z,94889.80
2023-02-22T23:54:36.578Z,94887.00
2023-02-22T23:57:05.393Z,94888.40
2023-02-22T23:59:33.661Z,94888.60
